Time;durP1;ratioP1;P1;durP2;ratioP2;P2;SDS_P1;SDS_P2;PMS_P1;PMS_P2;Temp;Humidity;BMP_temperature;BMP_pressure;BME280_temperature;BME280_humidity;BME280_pressure;Samples;Min_cycle;Max_cycle;Signal;HPM_P1;HPM_P2
2021/09/22 00:00:14;;;;;;;;;0.75;0.75;;;;;15.13;59.79;102599.66;5041813;28;45316;-80
2021/09/22 00:02:39;;;;;;;;;0.75;0.75;;;;;15.14;60.04;102590.91;5041923;28;45574;-80
2021/09/22 00:05:06;;;;;;;;;0.50;0.50;;;;;15.19;59.92;102595.38;5041529;28;46221;-81
2021/09/22 00:07:31;;;;;;;;;1.00;1.00;;;;;15.06;59.94;102575.91;5041397;28;45276;-81
2021/09/22 00:09:56;;;;;;;;;0.75;0.75;;;;;14.95;59.95;102548.59;5041715;28;45280;-80
2021/09/22 00:12:22;;;;;;;;;0.00;0.00;;;;;15.16;60.14;102587.47;5043812;28;45293;-80
2021/09/22 00:14:47;;;;;;;;;0.75;0.75;;;;;15.16;60.16;102589.22;5026802;28;48045;-81
2021/09/22 00:17:13;;;;;;;;;3.00;1.00;;;;;14.93;60.11;102558.16;5044794;28;45426;-79
2021/09/22 00:19:38;;;;;;;;;0.50;0.50;;;;;15.04;60.21;102575.00;5026974;28;45241;-79
2021/09/22 00:22:03;;;;;;;;;1.00;1.00;;;;;14.98;60.46;102560.88;5045478;28;45261;-79
2021/09/22 00:24:29;;;;;;;;;2.50;0.75;;;;;14.85;60.51;102541.41;5045222;28;45284;-80
2021/09/22 00:26:54;;;;;;;;;0.50;0.50;;;;;14.91;60.29;102552.00;5043936;28;45323;-81
2021/09/22 00:29:19;;;;;;;;;0.00;0.00;;;;;15.13;60.43;102590.03;5045282;28;45651;-81
2021/09/22 00:31:45;;;;;;;;;2.00;0.00;;;;;15.12;60.45;102587.38;5033934;28;45460;-81
2021/09/22 00:34:11;;;;;;;;;1.25;1.00;;;;;14.89;60.51;102543.25;5006779;28;47735;-81
2021/09/22 00:36:36;;;;;;;;;1.75;0.50;;;;;14.99;60.48;102563.53;5024508;28;45320;-80
2021/09/22 00:39:03;;;;;;;;;1.00;1.00;;;;;15.09;60.57;102577.72;5006847;28;45364;-79
2021/09/22 00:41:28;;;;;;;;;1.00;1.00;;;;;15.01;60.68;102568.81;5024838;28;45350;-80
2021/09/22 00:43:54;;;;;;;;;1.00;1.00;;;;;15.03;60.55;102574.97;5024279;28;46190;-80
2021/09/22 00:46:19;;;;;;;;;0.00;0.00;;;;;14.93;60.53;102559.06;5024309;28;45333;-81
2021/09/22 00:48:44;;;;;;;;;0.25;0.25;;;;;14.86;60.72;102533.59;5024586;28;45226;-80
2021/09/22 00:51:10;;;;;;;;;1.00;1.00;;;;;15.07;60.76;102569.81;5006745;28;45557;-81
2021/09/22 00:53:37;;;;;;;;;0.00;0.00;;;;;14.56;60.61;102477.03;5006298;28;47115;-81
2021/09/22 00:56:04;;;;;;;;;0.50;0.50;;;;;14.88;60.89;102538.84;5024268;28;45239;-81
2021/09/22 00:58:30;;;;;;;;;2.50;1.00;;;;;14.79;60.85;102514.22;5006178;28;45186;-80
2021/09/22 01:00:56;;;;;;;;;0.50;0.50;;;;;14.76;60.67;102514.13;5024369;28;45568;-81
2021/09/22 01:03:22;;;;;;;;;1.00;0.50;;;;;14.83;60.69;102523.03;5024682;28;45372;-80
2021/09/22 01:05:49;;;;;;;;;2.00;2.00;;;;;15.06;61.04;102559.28;5007241;28;46013;-81
2021/09/22 01:08:16;;;;;;;;;0.00;0.00;;;;;15.05;60.75;102555.81;5023959;28;45300;-81
2021/09/22 01:10:43;;;;;;;;;1.00;1.00;;;;;14.90;61.00;102534.50;5006482;28;45266;-81
2021/09/22 01:13:09;;;;;;;;;1.00;1.00;;;;;14.91;60.91;102539.78;5022457;28;45314;-80
2021/09/22 01:15:38;;;;;;;;;0.00;0.00;;;;;15.02;60.79;102555.75;5023501;28;45417;-81
2021/09/22 01:18:04;;;;;;;;;0.50;0.00;;;;;14.86;60.91;102528.34;5006045;28;45384;-80
2021/09/22 01:20:31;;;;;;;;;2.25;0.50;;;;;15.00;60.86;102549.56;5006024;28;45608;-80
2021/09/22 01:22:59;;;;;;;;;0.00;0.00;;;;;14.77;61.01;102508.03;5026277;28;46171;-79
2021/09/22 01:25:24;;;;;;;;;4.00;1.50;;;;;14.81;61.34;102522.09;5043622;28;45225;-79
2021/09/22 01:27:54;;;;;;;;;0.50;0.50;;;;;14.74;61.45;102509.69;5043845;28;45328;-81
2021/09/22 01:30:20;;;;;;;;;1.00;0.50;;;;;14.87;61.23;102524.84;5043980;28;45162;-79
2021/09/22 01:32:49;;;;;;;;;0.50;0.50;;;;;14.97;61.37;102553.88;5042215;28;46594;-81
2021/09/22 01:35:14;;;;;;;;;1.25;1.25;;;;;14.90;61.44;102545.91;5043853;28;45301;-81
2021/09/22 01:37:39;;;;;;;;;1.00;1.00;;;;;14.85;61.76;102549.28;5042371;28;45472;-81
2021/09/22 01:40:06;;;;;;;;;1.00;1.00;;;;;14.51;61.91;102518.88;5044220;28;45269;-80
2021/09/22 01:42:31;;;;;;;;;1.50;1.00;;;;;14.51;62.22;102521.50;5025498;28;47222;-81
2021/09/22 01:44:57;;;;;;;;;2.25;1.00;;;;;14.47;61.96;102516.16;5043385;28;45313;-81
2021/09/22 01:47:22;;;;;;;;;5.25;2.00;;;;;14.18;62.52;102491.13;5025478;28;45446;-80
2021/09/22 01:49:47;;;;;;;;;2.00;2.00;;;;;14.42;62.80;102555.34;5043815;28;45304;-81
2021/09/22 01:52:13;;;;;;;;;1.25;1.00;;;;;14.34;62.76;102552.59;5043213;28;45331;-80
2021/09/22 01:54:38;;;;;;;;;0.25;0.00;;;;;14.15;63.35;102548.66;5043308;28;45335;-81
2021/09/22 01:57:03;;;;;;;;;4.25;3.00;;;;;14.15;63.47;102554.78;5043288;28;45506;-81
2021/09/22 01:59:29;;;;;;;;;2.75;1.00;;;;;13.99;63.67;102531.69;5043337;28;45462;-81
2021/09/22 02:01:54;;;;;;;;;3.50;1.00;;;;;13.85;63.51;102513.06;5042940;28;46294;-81
2021/09/22 02:04:19;;;;;;;;;1.00;1.00;;;;;13.53;63.76;102480.94;5043073;28;45236;-80
2021/09/22 02:06:45;;;;;;;;;1.00;1.00;;;;;14.02;63.75;102542.25;5041715;28;45181;-81
2021/09/22 02:09:10;;;;;;;;;2.00;0.50;;;;;13.75;63.88;102504.97;5042910;28;45240;-81
2021/09/22 02:11:35;;;;;;;;;1.00;1.00;;;;;14.00;63.45;102539.59;5042830;28;45312;-80
2021/09/22 02:14:01;;;;;;;;;1.25;0.50;;;;;13.84;63.43;102512.16;5025068;28;45194;-81
2021/09/22 02:16:26;;;;;;;;;2.00;1.25;;;;;14.03;63.60;102538.78;5024922;28;45319;-80
2021/09/22 02:18:52;;;;;;;;;2.00;2.00;;;;;13.97;63.40;102523.84;5043263;28;45612;-81
2021/09/22 02:21:17;;;;;;;;;1.75;1.00;;;;;14.07;63.44;102522.31;5024402;28;47494;-81
2021/09/22 02:23:42;;;;;;;;;2.50;2.50;;;;;14.09;63.22;102520.56;5042689;28;45320;-81
2021/09/22 02:26:08;;;;;;;;;3.75;2.50;;;;;14.09;63.59;102520.56;5041538;28;45311;-81
2021/09/22 02:28:34;;;;;;;;;0.75;0.50;;;;;14.00;63.13;102509.91;5043275;28;45469;-81
2021/09/22 02:30:59;;;;;;;;;5.50;2.00;;;;;13.83;63.63;102481.63;5040735;28;47955;-81
2021/09/22 02:33:26;;;;;;;;;2.00;2.00;;;;;13.95;63.84;102483.63;5025060;28;45430;-81
2021/09/22 02:35:51;;;;;;;;;1.50;0.00;;;;;14.01;63.24;102488.13;5042799;28;45300;-82
2021/09/22 02:38:17;;;;;;;;;1.00;1.00;;;;;13.86;63.33;102457.22;5024668;28;45387;-81
2021/09/22 02:40:42;;;;;;;;;1.00;1.00;;;;;13.93;63.24;102454.78;5042503;28;45488;-81
2021/09/22 02:43:08;;;;;;;;;2.00;2.00;;;;;13.85;63.34;102440.66;5042622;28;45264;-80
2021/09/22 02:45:33;;;;;;;;;1.00;1.00;;;;;14.06;63.02;102461.19;5042412;28;45427;-81
2021/09/22 02:47:58;;;;;;;;;2.25;1.25;;;;;14.21;63.25;102487.69;5024779;28;45461;-80
2021/09/22 02:50:24;;;;;;;;;0.25;0.25;;;;;14.16;63.01;102478.00;5042572;28;45866;-81
2021/09/22 02:52:50;;;;;;;;;2.00;2.00;;;;;13.92;62.96;102437.31;5042752;28;45481;-81
2021/09/22 02:55:16;;;;;;;;;1.50;1.00;;;;;14.12;63.05;102468.28;5024659;28;45292;-81
2021/09/22 02:57:43;;;;;;;;;1.00;1.00;;;;;14.05;63.14;102469.88;5042985;28;45166;-81
2021/09/22 03:00:09;;;;;;;;;2.75;0.75;;;;;13.99;63.05;102443.56;5042292;28;46484;-81
2021/09/22 03:02:35;;;;;;;;;1.00;1.00;;;;;14.05;63.10;102445.44;5042348;28;45321;-82
2021/09/22 03:05:01;;;;;;;;;0.75;0.75;;;;;13.87;63.05;102417.13;5042525;28;45324;-81
2021/09/22 03:07:26;;;;;;;;;3.00;2.75;;;;;14.17;63.04;102463.13;5024563;28;45333;-82
2021/09/22 03:09:51;;;;;;;;;1.25;1.25;;;;;13.78;62.90;102396.84;5042278;28;45303;-81
2021/09/22 03:12:17;;;;;;;;;6.25;1.25;;;;;14.09;62.89;102444.63;5042338;28;45282;-82
2021/09/22 03:14:42;;;;;;;;;1.00;1.00;;;;;14.18;62.87;102459.69;5024712;28;45663;-82
2021/09/22 03:17:07;;;;;;;;;2.00;1.00;;;;;13.83;62.95;102399.56;5042672;28;45261;-81
2021/09/22 03:19:33;;;;;;;;;1.25;1.25;;;;;14.08;63.00;102444.63;5041882;28;45392;-81
2021/09/22 03:21:58;;;;;;;;;1.00;1.00;;;;;14.17;62.99;102465.75;5023933;28;45332;-81
2021/09/22 03:24:24;;;;;;;;;1.75;0.50;;;;;14.15;62.82;102447.41;5041805;28;45267;-81
2021/09/22 03:26:50;;;;;;;;;0.75;0.75;;;;;14.18;62.77;102452.69;5042606;28;45325;-81
2021/09/22 03:29:15;;;;;;;;;0.75;0.75;;;;;14.16;63.01;102446.56;5040561;28;46061;-81
2021/09/22 03:31:42;;;;;;;;;2.75;1.50;;;;;13.97;62.88;102410.34;5040234;28;45984;-81
2021/09/22 03:34:09;;;;;;;;;1.00;1.00;;;;;14.13;62.81;102448.22;5042377;28;45289;-81
2021/09/22 03:36:34;;;;;;;;;3.75;2.25;;;;;14.11;63.13;102444.66;5041564;28;45459;-81
2021/09/22 03:39:00;;;;;;;;;2.00;2.00;;;;;13.94;62.89;102412.03;5041858;28;45597;-81
2021/09/22 03:41:25;;;;;;;;;1.00;0.75;;;;;13.96;62.92;102421.69;5041809;28;45259;-81
2021/09/22 03:43:51;;;;;;;;;1.00;1.00;;;;;14.04;62.90;102436.72;5041931;28;45396;-81
2021/09/22 03:46:17;;;;;;;;;1.25;1.25;;;;;13.93;62.92;102427.72;5043615;28;45392;-81
2021/09/22 03:48:42;;;;;;;;;1.25;0.00;;;;;13.97;62.79;102433.91;5045180;28;46321;-82
2021/09/22 03:51:07;;;;;;;;;2.25;2.25;;;;;14.11;62.96;102465.63;5026597;28;45401;-81
2021/09/22 03:53:33;;;;;;;;;4.00;2.00;;;;;13.81;62.71;102426.59;5044006;28;45306;-81
2021/09/22 03:55:58;;;;;;;;;5.25;2.25;;;;;13.90;62.99;102452.09;5045547;28;45361;-81
2021/09/22 03:58:24;;;;;;;;;3.00;2.00;;;;;13.97;62.97;102481.03;5045045;28;45376;-81
2021/09/22 04:00:49;;;;;;;;;2.00;2.00;;;;;13.39;62.76;102394.22;5026798;28;45390;-81
2021/09/22 04:03:15;;;;;;;;;3.50;2.25;;;;;13.68;62.90;102458.59;5045262;28;45301;-82
2021/09/22 04:05:40;;;;;;;;;2.00;1.25;;;;;13.65;63.10;102469.88;5043759;28;45485;-81
2021/09/22 04:08:06;;;;;;;;;1.00;1.00;;;;;13.25;63.14;102414.81;5043161;28;47521;-81
2021/09/22 04:10:31;;;;;;;;;1.00;1.00;;;;;13.60;63.62;102484.56;5044709;28;45268;-80
2021/09/22 04:12:57;;;;;;;;;1.25;1.00;;;;;13.13;63.55;102410.19;5044916;28;45298;-81
2021/09/22 04:15:22;;;;;;;;;2.00;1.50;;;;;13.25;63.80;102450.53;5044972;28;45227;-78
2021/09/22 04:17:47;;;;;;;;;1.25;1.00;;;;;12.98;64.03;102421.13;5026655;28;47480;-81
2021/09/22 04:20:13;;;;;;;;;1.25;1.00;;;;;13.30;64.23;102475.09;5043149;28;45687;-80
2021/09/22 04:22:41;;;;;;;;;0.75;0.75;;;;;13.13;63.96;102448.50;5043543;28;45495;-80
2021/09/22 04:25:09;;;;;;;;;3.00;1.25;;;;;13.36;63.92;102498.81;5024940;28;45325;-80
2021/09/22 04:27:35;;;;;;;;;4.50;3.00;;;;;13.23;64.22;102473.19;5024207;28;45313;-81
2021/09/22 04:30:01;;;;;;;;;1.00;1.00;;;;;13.08;64.31;102456.22;5024418;28;45285;-81
2021/09/22 04:32:26;;;;;;;;;1.00;1.00;;;;;12.92;64.58;102441.88;5024042;28;45237;-80
2021/09/22 04:34:51;;;;;;;;;2.50;1.75;;;;;13.09;64.40;102465.88;5007068;28;45285;-79
2021/09/22 04:37:17;;;;;;;;;3.50;1.75;;;;;13.24;64.59;102482.78;5024360;28;46179;-80
2021/09/22 04:39:42;;;;;;;;;1.00;1.00;;;;;13.12;64.58;102468.56;5024595;28;45282;-81
2021/09/22 04:42:08;;;;;;;;;2.00;2.00;;;;;13.10;64.64;102465.00;5024543;28;45501;-81
2021/09/22 04:44:33;;;;;;;;;4.00;2.75;;;;;12.92;64.30;102434.03;5003093;28;45344;-81
2021/09/22 04:46:59;;;;;;;;;2.50;1.75;;;;;13.02;64.78;102453.47;5024163;28;45301;-81
2021/09/22 04:49:24;;;;;;;;;2.25;2.00;;;;;13.07;64.78;102456.22;5023976;28;45202;-81
2021/09/22 04:51:49;;;;;;;;;0.75;0.75;;;;;12.75;64.55;102392.69;5022572;28;45261;-81
2021/09/22 04:54:15;;;;;;;;;2.00;1.00;;;;;13.29;64.44;102487.28;5013588;28;45297;-81
2021/09/22 04:56:40;;;;;;;;;1.50;1.50;;;;;13.31;64.55;102487.31;5003440;28;46466;-80
2021/09/22 04:59:06;;;;;;;;;1.75;1.75;;;;;13.21;64.59;102473.13;5002299;28;45317;-81
2021/09/22 05:01:31;;;;;;;;;1.75;1.50;;;;;13.23;64.42;102487.13;4998148;28;45499;-79
2021/09/22 05:03:56;;;;;;;;;1.25;1.25;;;;;13.30;64.56;102498.63;5018930;28;45388;-79
2021/09/22 05:06:22;;;;;;;;;1.75;1.75;;;;;13.30;64.65;102485.56;5005563;28;46997;-80
2021/09/22 05:08:47;;;;;;;;;2.25;1.75;;;;;13.39;64.42;102495.38;5024080;28;45357;-80
2021/09/22 05:11:13;;;;;;;;;0.50;0.50;;;;;13.25;63.97;102480.22;5015105;28;45334;-80
2021/09/22 05:13:38;;;;;;;;;3.00;2.00;;;;;13.13;64.33;102446.78;5022077;28;45488;-79
2021/09/22 05:16:04;;;;;;;;;1.50;1.25;;;;;13.26;64.31;102468.03;5030249;28;47700;-80
2021/09/22 05:18:29;;;;;;;;;2.25;1.00;;;;;13.16;64.30;102457.31;5042025;28;45359;-80
2021/09/22 05:20:54;;;;;;;;;4.00;3.00;;;;;13.08;64.19;102432.69;5043954;28;45374;-80
2021/09/22 05:23:20;;;;;;;;;1.00;1.00;;;;;13.29;64.58;102462.84;5037445;28;45237;-81
2021/09/22 05:25:45;;;;;;;;;1.00;1.00;;;;;13.44;63.99;102480.66;5043717;28;45660;-80
2021/09/22 05:28:10;;;;;;;;;4.50;1.00;;;;;13.36;64.28;102472.66;5043979;28;45178;-79
2021/09/22 05:30:36;;;;;;;;;1.50;1.25;;;;;13.41;64.29;102491.94;5043977;28;45297;-80
2021/09/22 05:33:02;;;;;;;;;1.25;1.25;;;;;13.26;64.28;102454.94;5043736;28;45208;-80
2021/09/22 05:35:27;;;;;;;;;2.00;2.00;;;;;13.24;63.83;102449.69;5043112;28;45357;-80
2021/09/22 05:37:53;;;;;;;;;1.50;1.50;;;;;13.36;63.97;102471.75;5042688;28;45266;-80
2021/09/22 05:40:19;;;;;;;;;1.25;1.25;;;;;13.20;64.30;102442.59;5043029;28;45257;-80
2021/09/22 05:42:44;;;;;;;;;0.25;0.25;;;;;13.17;63.90;102439.91;5035028;28;45267;-80
2021/09/22 05:45:14;;;;;;;;;1.50;1.50;;;;;13.43;63.92;102481.50;5025642;28;45802;-80
2021/09/22 05:47:39;;;;;;;;;1.75;1.75;;;;;13.48;63.75;102498.19;5030304;28;45261;-79
2021/09/22 05:50:05;;;;;;;;;2.00;1.00;;;;;13.38;63.87;102489.25;5042891;28;45433;-79
2021/09/22 05:52:30;;;;;;;;;1.00;1.00;;;;;13.13;63.89;102449.41;5058324;28;45550;-79
2021/09/22 05:54:56;;;;;;;;;0.25;0.25;;;;;13.33;63.88;102488.25;5041157;28;47938;-80
2021/09/22 05:57:21;;;;;;;;;3.00;1.00;;;;;13.11;64.34;102456.31;5042858;28;45293;-79
2021/09/22 05:59:46;;;;;;;;;1.00;1.00;;;;;13.27;64.25;102477.63;5042315;28;45164;-80
2021/09/22 06:02:12;;;;;;;;;2.25;1.75;;;;;13.39;63.92;102503.22;5034841;28;45240;-79
2021/09/22 06:04:37;;;;;;;;;7.25;3.25;;;;;13.18;63.93;102463.47;5027481;28;45265;-78
2021/09/22 06:07:02;;;;;;;;;1.00;1.00;;;;;13.29;64.45;102491.63;5037795;28;45331;-79
2021/09/22 06:09:28;;;;;;;;;2.50;2.00;;;;;13.17;63.73;102477.38;5021944;28;45208;-78
2021/09/22 06:11:54;;;;;;;;;1.50;1.50;;;;;13.32;64.22;102496.06;5034830;28;45244;-83
2021/09/22 06:14:19;;;;;;;;;3.00;1.00;;;;;13.43;63.84;102505.94;5042924;28;45282;-77
2021/09/22 06:16:44;;;;;;;;;0.00;0.00;;;;;13.50;64.04;102506.13;5056833;28;45343;-79
2021/09/22 06:19:10;;;;;;;;;1.50;1.00;;;;;13.32;63.92;102476.00;5040818;28;45445;-79
2021/09/22 06:21:39;;;;;;;;;1.25;1.25;;;;;13.28;63.56;102466.31;5032862;28;45468;-79
2021/09/22 06:24:05;;;;;;;;;1.00;1.00;;;;;13.46;63.78;102489.44;5027764;28;48402;-80
2021/09/22 06:26:31;;;;;;;;;1.00;0.75;;;;;13.42;63.62;102483.22;5040966;28;45343;-79
2021/09/22 06:28:56;;;;;;;;;1.25;0.00;;;;;13.28;63.51;102451.53;5041505;28;45436;-80
2021/09/22 06:31:22;;;;;;;;;2.50;0.75;;;;;13.43;63.29;102471.94;5045216;28;45262;-79
2021/09/22 06:33:48;;;;;;;;;3.25;2.25;;;;;13.71;63.47;102518.84;5032397;28;45413;-81
2021/09/22 06:36:13;;;;;;;;;1.75;1.75;;;;;13.58;63.12;102501.97;5025370;28;45317;-81
2021/09/22 06:38:39;;;;;;;;;1.75;1.00;;;;;13.59;63.21;102506.34;5043850;28;45659;-83
2021/09/22 06:41:05;;;;;;;;;1.00;1.00;;;;;13.42;63.17;102464.91;5059523;28;45374;-83
2021/09/22 06:43:31;;;;;;;;;2.00;1.50;;;;;13.59;63.22;102479.28;5043318;28;47405;-81
2021/09/22 06:45:56;;;;;;;;;1.50;0.50;;;;;13.75;63.21;102497.13;5043416;28;45323;-81
2021/09/22 06:48:21;;;;;;;;;2.75;2.00;;;;;13.93;63.05;102514.13;5044911;28;45413;-81
2021/09/22 06:50:48;;;;;;;;;2.25;2.25;;;;;13.84;62.62;102504.31;5040837;28;45583;-80
2021/09/22 06:53:13;;;;;;;;;1.00;0.75;;;;;13.80;62.85;102506.00;5040758;28;46212;-80
2021/09/22 06:55:39;;;;;;;;;2.75;2.00;;;;;13.65;62.82;102489.91;5040804;28;45511;-80
2021/09/22 06:58:05;;;;;;;;;0.50;0.25;;;;;13.80;62.89;102518.19;5039551;28;45415;-80
2021/09/22 07:00:35;;;;;;;;;0.75;0.75;;;;;13.90;62.96;102527.13;5040859;28;45350;-80
2021/09/22 07:03:01;;;;;;;;;1.75;1.75;;;;;13.77;62.88;102503.31;5042613;28;46434;-82
2021/09/22 07:05:28;;;;;;;;;0.50;0.50;;;;;14.02;62.70;102524.81;5047549;28;45449;-81
2021/09/22 07:07:54;;;;;;;;;1.00;1.00;;;;;14.10;62.48;102525.00;5046863;28;45490;-81
2021/09/22 07:10:19;;;;;;;;;2.50;2.00;;;;;14.00;62.46;102515.16;5048938;28;45414;-80
2021/09/22 07:12:45;;;;;;;;;2.75;2.50;;;;;14.12;62.42;102532.88;5045179;28;45415;-82
2021/09/22 07:15:11;;;;;;;;;2.25;0.50;;;;;13.64;62.35;102439.31;5045571;28;45266;-80
2021/09/22 07:17:37;;;;;;;;;1.75;1.25;;;;;14.00;62.27;102502.06;5049014;28;45178;-80
2021/09/22 07:20:03;;;;;;;;;1.25;1.25;;;;;14.09;61.85;102520.56;5045387;28;45190;-81
2021/09/22 07:22:29;;;;;;;;;1.50;1.50;;;;;14.14;61.95;102526.81;5052594;28;45367;-83
2021/09/22 07:24:55;;;;;;;;;0.50;0.25;;;;;14.17;61.82;102519.03;5048815;28;45249;-80
2021/09/22 07:27:20;;;;;;;;;5.00;3.00;;;;;13.99;61.68;102488.06;5049660;28;45524;-81
2021/09/22 07:29:46;;;;;;;;;2.00;2.00;;;;;14.34;61.76;102544.72;5047377;28;45591;-76
2021/09/22 07:32:11;;;;;;;;;0.00;0.00;;;;;14.28;61.60;102542.81;5037997;28;45317;-76
2021/09/22 07:34:37;;;;;;;;;2.00;1.50;;;;;14.22;61.69;102539.19;5027349;28;45247;-76
2021/09/22 07:37:07;;;;;;;;;4.25;1.75;;;;;14.28;61.78;102539.34;5041135;28;45679;-77
2021/09/22 07:39:34;;;;;;;;;0.00;0.00;;;;;14.26;61.45;102547.16;5017734;28;45642;-77
2021/09/22 07:42:00;;;;;;;;;2.25;1.00;;;;;14.04;61.82;102507.41;5043952;28;45597;-78
2021/09/22 07:44:25;;;;;;;;;1.75;1.75;;;;;14.18;61.43;102528.66;5026814;28;47233;-80
2021/09/22 07:46:51;;;;;;;;;0.00;0.00;;;;;14.23;61.51;102518.28;5028501;28;45412;-78
2021/09/22 07:49:16;;;;;;;;;0.75;0.00;;;;;14.61;61.60;102563.63;5043639;28;45451;-78
2021/09/22 07:51:42;;;;;;;;;3.75;2.00;;;;;14.59;61.17;102534.75;5044790;28;46102;-80
2021/09/22 07:54:07;;;;;;;;;2.00;1.00;;;;;14.62;60.93;102531.31;5044634;28;45320;-79
2021/09/22 07:56:33;;;;;;;;;0.00;0.00;;;;;13.73;60.63;102375.84;5045765;28;45728;-79
2021/09/22 07:58:58;;;;;;;;;1.25;1.25;;;;;14.69;60.57;102539.34;5044356;28;45677;-78
2021/09/22 08:01:23;;;;;;;;;2.25;1.00;;;;;14.86;60.59;102545.78;5047419;28;46061;-78
2021/09/22 08:03:49;;;;;;;;;1.75;0.25;;;;;14.68;60.58;102519.19;5042780;28;45382;-79
2021/09/22 08:06:14;;;;;;;;;2.00;2.00;;;;;14.90;60.14;102556.38;5048647;28;45253;-79
2021/09/22 08:08:39;;;;;;;;;3.00;2.00;;;;;14.94;60.15;102558.19;5047245;28;45296;-79
2021/09/22 08:11:05;;;;;;;;;1.50;1.50;;;;;14.74;59.89;102528.94;5046573;28;45262;-80
2021/09/22 08:13:30;;;;;;;;;0.75;0.75;;;;;14.95;60.00;102559.09;5044007;28;45305;-79
2021/09/22 08:15:56;;;;;;;;;2.00;2.00;;;;;14.95;60.19;102549.47;5044240;28;45391;-81
2021/09/22 08:18:21;;;;;;;;;2.00;2.00;;;;;14.75;60.00;102511.47;5044022;28;45241;-79
2021/09/22 08:20:47;;;;;;;;;2.50;1.00;;;;;14.97;60.21;102538.16;5044863;28;46089;-79
2021/09/22 08:23:12;;;;;;;;;1.50;1.50;;;;;14.91;60.05;102536.28;5035285;28;45602;-79
2021/09/22 08:25:37;;;;;;;;;3.00;3.00;;;;;15.03;60.27;102547.00;5045158;28;45333;-79
2021/09/22 08:28:03;;;;;;;;;2.75;1.00;;;;;14.86;59.86;102498.59;5045377;28;45403;-80
2021/09/22 08:30:28;;;;;;;;;2.00;2.00;;;;;15.22;60.08;102546.47;5045514;28;46247;-80
2021/09/22 08:32:54;;;;;;;;;4.00;3.00;;;;;15.29;59.29;102551.84;5044026;28;45242;-79
2021/09/22 08:35:19;;;;;;;;;0.50;0.50;;;;;15.40;59.44;102557.28;5045169;28;45189;-81
2021/09/22 08:37:45;;;;;;;;;1.25;1.25;;;;;15.41;59.82;102543.28;5044483;28;45369;-81
2021/09/22 08:40:12;;;;;;;;;2.25;1.25;;;;;15.58;59.00;102555.81;5044832;28;45446;-81
2021/09/22 08:42:38;;;;;;;;;2.00;2.00;;;;;15.76;58.87;102559.63;5041239;28;45382;-81
2021/09/22 08:45:04;;;;;;;;;2.50;2.50;;;;;15.70;58.81;102544.66;5044897;28;45350;-79
2021/09/22 08:47:30;;;;;;;;;2.00;0.50;;;;;15.50;58.50;102497.94;5027456;28;45292;-81
2021/09/22 08:49:56;;;;;;;;;1.50;1.50;;;;;15.93;58.33;102558.13;5026713;28;46187;-80
2021/09/22 08:52:21;;;;;;;;;1.00;1.00;;;;;15.99;58.52;102553.88;5026549;28;46178;-79
2021/09/22 08:54:47;;;;;;;;;3.00;3.00;;;;;16.14;58.05;102554.09;5043672;28;45484;-80
2021/09/22 08:57:12;;;;;;;;;2.00;1.25;;;;;16.27;57.41;102564.78;5043857;28;45365;-81
2021/09/22 08:59:38;;;;;;;;;5.50;1.00;;;;;16.15;57.17;102518.22;5042817;28;48534;-79
2021/09/22 09:02:14;;;;;;;;;1.00;1.00;;;;;16.40;56.21;102565.84;5040132;28;45418;-80
2021/09/22 09:04:42;;;;;;;;;2.00;2.00;;;;;16.40;56.48;102571.97;5042505;28;45814;-79
2021/09/22 09:07:09;;;;;;;;;0.25;0.25;;;;;16.52;56.26;102570.38;5035160;28;45557;-81
2021/09/22 09:09:37;;;;;;;;;5.50;4.00;;;;;16.24;56.21;102505.22;5026457;28;47998;-81
2021/09/22 09:12:13;;;;;;;;;1.50;1.00;;;;;16.66;56.40;102563.53;5024779;28;45477;-80
2021/09/22 09:14:39;;;;;;;;;1.75;1.75;;;;;16.28;56.56;102504.38;5036647;28;46517;-80
2021/09/22 09:17:11;;;;;;;;;2.75;1.00;;;;;16.66;56.03;102562.69;5029227;28;45237;-80
2021/09/22 09:19:44;;;;;;;;;0.75;0.75;;;;;16.79;55.77;102567.22;5026872;28;46555;-80
2021/09/22 09:22:11;;;;;;;;;2.50;2.00;;;;;16.65;55.21;102518.81;5015052;28;45428;-81
2021/09/22 09:24:46;;;;;;;;;5.50;0.50;;;;;16.68;55.00;102497.81;5030091;28;45312;-79
2021/09/22 09:27:31;;;;;;;;;2.00;0.25;;;;;17.12;54.89;102553.56;5032468;28;45288;-79
2021/09/22 09:29:57;;;;;;;;;0.75;0.75;;;;;16.82;55.01;102498.00;5015331;28;46662;-80
2021/09/22 09:32:26;;;;;;;;;1.00;1.00;;;;;16.92;54.87;102499.84;5032987;28;45430;-81
2021/09/22 09:35:08;;;;;;;;;1.00;1.00;;;;;17.26;54.79;102527.38;5028959;28;46304;-80
2021/09/22 09:37:37;;;;;;;;;1.00;1.00;;;;;17.51;54.13;102554.78;5028692;28;45526;-80
2021/09/22 09:40:20;;;;;;;;;0.50;0.50;;;;;17.65;54.06;102554.03;5019913;28;47367;-82
2021/09/22 09:42:48;;;;;;;;;0.50;0.50;;;;;17.64;52.84;102537.34;5025378;28;45333;-80
2021/09/22 09:45:18;;;;;;;;;2.75;0.25;;;;;17.89;52.46;102550.72;5021884;28;45446;-79
2021/09/22 09:48:00;;;;;;;;;1.00;1.00;;;;;17.68;52.07;102494.38;5029083;28;45265;-81
2021/09/22 09:50:26;;;;;;;;;0.50;0.25;;;;;18.01;51.32;102528.81;5031856;28;46053;-82
2021/09/22 09:52:56;;;;;;;;;5.75;2.00;;;;;18.22;51.64;102535.09;5037847;28;45292;-82
2021/09/22 09:55:25;;;;;;;;;1.00;1.00;;;;;18.28;51.28;102552.72;5020278;28;45449;-82
2021/09/22 09:57:53;;;;;;;;;1.00;1.00;;;;;18.26;51.32;102542.19;5033791;28;45566;-80
2021/09/22 10:00:42;;;;;;;;;2.00;1.75;;;;;18.28;49.49;102536.91;5032634;28;46312;-82
2021/09/22 10:03:13;;;;;;;;;1.00;1.00;;;;;18.30;49.56;102538.69;5019649;28;46255;-81
2021/09/22 10:05:39;;;;;;;;;0.00;0.00;;;;;18.23;49.92;102526.34;4991211;28;45442;-81
2021/09/22 10:08:05;;;;;;;;;0.50;0.50;;;;;18.26;49.29;102523.72;5025429;28;45494;-82
2021/09/22 10:10:31;;;;;;;;;4.25;2.00;;;;;17.74;49.87;102422.44;5033930;28;45325;-82
2021/09/22 10:12:56;;;;;;;;;1.50;1.50;;;;;18.06;49.68;102461.22;5037309;28;45433;-81
2021/09/22 10:15:29;;;;;;;;;0.00;0.00;;;;;17.84;48.70;102416.34;5036280;28;45426;-82
2021/09/22 10:17:58;;;;;;;;;0.00;0.00;;;;;17.66;49.58;102379.34;5043912;28;45308;-83
2021/09/22 10:20:24;;;;;;;;;1.25;1.25;;;;;18.64;48.54;102539.69;5036529;28;46346;-83
2021/09/22 10:22:55;;;;;;;;;1.00;1.00;;;;;18.74;48.65;102525.63;5041578;28;45388;-81
2021/09/22 10:25:23;;;;;;;;;0.00;0.00;;;;;18.23;48.42;102420.91;5038870;28;45605;-82
2021/09/22 10:27:49;;;;;;;;;2.00;2.00;;;;;18.42;47.56;102442.03;5024512;28;45420;-81
2021/09/22 10:30:16;;;;;;;;;0.00;0.00;;;;;18.52;47.11;102472.84;5034867;28;45510;-81
2021/09/22 10:32:49;;;;;;;;;0.00;0.00;;;;;18.78;47.86;102519.53;5040545;28;45238;-83
2021/09/22 10:35:24;;;;;;;;;2.00;2.00;;;;;18.56;47.53;102453.50;5036836;28;45448;-82
2021/09/22 10:37:50;;;;;;;;;0.00;0.00;;;;;18.76;47.38;102470.25;5033840;28;45779;-81
2021/09/22 10:40:47;;;;;;;;;1.50;1.50;;;;;17.67;47.46;102275.81;5025557;28;47306;-81
2021/09/22 10:43:20;;;;;;;;;0.00;0.00;;;;;18.85;46.92;102478.19;5021048;28;46234;-82
2021/09/22 10:45:58;;;;;;;;;1.50;0.25;;;;;18.21;47.62;102367.31;5014093;28;44687;-81
2021/09/22 10:48:24;;;;;;;;;0.50;0.50;;;;;18.43;47.29;102406.88;5021048;28;45553;-82
2021/09/22 10:50:52;;;;;;;;;1.50;0.50;;;;;18.35;46.80;102391.94;5017234;28;46847;-82
2021/09/22 10:53:30;;;;;;;;;0.75;0.75;;;;;18.85;46.82;102465.00;5036362;28;45456;-81
2021/09/22 10:56:12;;;;;;;;;0.00;0.00;;;;;18.55;46.57;102435.94;5036113;28;46312;-81
2021/09/22 10:58:49;;;;;;;;;0.50;0.50;;;;;18.79;46.04;102465.88;5033253;28;45331;-80
2021/09/22 11:01:41;;;;;;;;;0.75;0.00;;;;;18.86;46.14;102466.75;5039498;28;46326;-80
2021/09/22 11:04:07;;;;;;;;;1.75;1.75;;;;;18.94;45.96;102466.75;5025692;28;45515;-78
2021/09/22 11:09:31;;;;;;;;;0.25;0.00;;;;;19.00;45.77;102458.84;5041287;28;45321;-79
2021/09/22 11:11:59;;;;;;;;;1.00;1.00;;;;;19.15;45.74;102458.03;5025677;28;46460;-81
2021/09/22 11:14:30;;;;;;;;;0.50;0.50;;;;;19.27;45.79;102449.22;5039030;28;45927;-81
2021/09/22 11:16:58;;;;;;;;;2.00;2.00;;;;;19.27;45.92;102443.06;5018269;28;45323;-81
2021/09/22 11:19:24;;;;;;;;;0.00;0.00;;;;;19.27;45.52;102440.41;5039358;28;45448;-81
2021/09/22 11:21:50;;;;;;;;;0.00;0.00;;;;;19.11;43.90;102430.75;5034178;28;45992;-80
2021/09/22 11:24:23;;;;;;;;;0.00;0.00;;;;;18.93;44.21;102394.63;5034967;28;45683;-81